Aérodrome :
LOGIN :

S'inscrire | Disclaimer

   EN    FR    IT 

 










Légende :    VFR   VFR Marginal   IFR   IFR Intensif   IFR Très Intensif
Visi : 
Plafond : 
>= 8 km
>= 3000ft
5 à 8 km
1000 à 3000 ft
1500m à 5 km
500 à 1000 ft
800 à 1500m
200 à 500 ft
< 800m
< 200 ft
Symboles :   Orages  Brouillard  Fortes neiges  Fortes précipitations  Vent > 20 kt
SIGMETs :   Divers  Orages  Givrage  Turbulence  Onde Orograph.  Cendres Volcan.






- Altitude de l'aérodrome : 1768 ft


LEHC - Huesca Pirineos

DERNIER METAR :
  • 061030Z 27003KT 220V320 9999 SCT052 11/07 Q1025

METARs EXPIRÉS :
  • 061000Z 24003KT 9999 BKN052 09/07 Q1025
  • 060930Z 25003KT 220V290 9999 BKN050 09/07 Q1025
  • 060900Z 22004KT 190V250 9999 BKN040 07/06 Q1024
  • 060830Z VRB02KT 9999 BKN040 07/06 Q1024
  • 060800Z VRB02KT 9999 BKN038 08/06 Q1024

TAF TAF LEHC
Valide du 06 à 09h jusqu'au 07 à 09h UTC


060800Z 0609/0709 VRB04KT 9999 SCT030 TX12/0614Z TN02/0706Z
PROB40
TEMPO 0700/0708 4000 BR BKN009



MET'MAP, la Météo Aéronautique d'un coup d'oeil ! - Copyright ORBIFLY Décembre 2007 - Disclaimer

ORBIFLY MET'MAP TEAM :

Programmation & Développement : Alexandra Zaïnal
Sur une idée originale de : Baudouin d'Aumeries
Assistance à la programmation : Marc-Olivier Méhu
Soutien technique & logistique : Manuel Goepfert

Contact : metmap@orbifly.com




SOURCES & CREDITS :

   NOAA